Time;durP1;ratioP1;P1;durP2;ratioP2;P2;SDS_P1;SDS_P2;PMS_P1;PMS_P2;Temp;Humidity;BMP_temperature;BMP_pressure;BME280_temperature;BME280_humidity;BME280_pressure;Samples;Min_cycle;Max_cycle;Signal;HPM_P1;HPM_P2
2021/06/20 00:00:34;;;;;;;13.95;7.63;;;;;;;29.10;47.46;96526.22;5055917;28;20040;-77
2021/06/20 00:02:59;;;;;;;13.98;7.20;;;;;;;29.08;47.24;96531.19;5072696;28;20116;-78
2021/06/20 00:05:37;;;;;;;11.40;6.47;;;;;;;28.70;47.57;96526.16;5069801;28;20114;-78
2021/06/20 00:08:07;;;;;;;14.63;7.22;;;;;;;28.94;47.64;96540.75;5054750;28;20028;-78
2021/06/20 00:10:34;;;;;;;17.95;7.78;;;;;;;29.07;46.73;96551.09;5071268;28;20032;-78
2021/06/20 00:13:03;;;;;;;14.25;6.90;;;;;;;29.07;46.48;96551.88;5072401;28;20031;-77
2021/06/20 00:15:30;;;;;;;12.55;6.85;;;;;;;29.20;46.22;96536.22;5049346;28;20077;-78
2021/06/20 00:17:56;;;;;;;23.70;8.20;;;;;;;29.16;47.19;96550.72;5062909;28;20036;-78
2021/06/20 00:20:24;;;;;;;15.77;7.72;;;;;;;28.71;48.26;96553.72;5066746;28;20035;-78
2021/06/20 00:22:50;;;;;;;12.90;7.25;;;;;;;28.80;48.23;96554.13;5050510;28;20024;-77
2021/06/20 00:25:16;;;;;;;14.32;7.15;;;;;;;28.79;48.65;96581.28;5043669;28;20052;-77
2021/06/20 00:27:42;;;;;;;13.68;7.38;;;;;;;28.74;48.80;96590.47;5062243;28;20111;-77
2021/06/20 00:30:10;;;;;;;14.90;7.57;;;;;;;28.57;49.06;96573.94;5053490;28;20764;-77
2021/06/20 00:32:36;;;;;;;15.48;7.72;;;;;;;28.49;49.64;96582.31;5032157;28;20028;-77
2021/06/20 00:35:03;;;;;;;14.25;7.38;;;;;;;28.51;49.26;96585.38;5065831;28;20024;-77
2021/06/20 00:37:28;;;;;;;14.35;6.50;;;;;;;28.46;49.79;96573.09;5049125;28;20028;-79
2021/06/20 00:39:53;;;;;;;16.08;7.90;;;;;;;28.51;49.15;96586.13;5052954;28;20438;-77
2021/06/20 00:42:19;;;;;;;12.43;6.50;;;;;;;28.34;49.91;96586.81;5054884;28;20028;-77
2021/06/20 00:44:49;;;;;;;14.93;6.97;;;;;;;28.33;49.94;96587.97;5055390;28;20370;-79
2021/06/20 00:47:15;;;;;;;15.27;6.15;;;;;;;28.47;49.67;96590.72;5069137;28;20028;-77
2021/06/20 00:49:41;;;;;;;11.43;5.57;;;;;;;28.39;48.83;96573.09;5071729;28;20024;-77
2021/06/20 00:52:09;;;;;;;10.90;6.43;;;;;;;28.30;49.60;96581.47;5038821;28;20026;-79
2021/06/20 00:54:34;;;;;;;11.13;6.22;;;;;;;28.32;49.29;96583.75;5054950;28;20103;-76
2021/06/20 00:57:00;;;;;;;13.15;6.50;;;;;;;28.20;49.25;96601.66;5054600;28;20028;-77
2021/06/20 00:59:27;;;;;;;11.43;6.70;;;;;;;28.00;49.78;96587.81;5050856;28;20016;-79
2021/06/20 01:01:53;;;;;;;10.80;5.50;;;;;;;28.00;49.36;96584.34;5038278;28;20036;-77
2021/06/20 01:04:18;;;;;;;10.82;5.00;;;;;;;27.90;48.48;96593.03;5076241;28;20039;-79
2021/06/20 01:06:44;;;;;;;8.15;5.07;;;;;;;27.90;48.26;96593.03;5079213;28;20066;-80
2021/06/20 01:09:09;;;;;;;14.75;5.45;;;;;;;27.89;48.63;96586.19;5054344;28;20039;-77
2021/06/20 01:11:34;;;;;;;10.55;4.68;;;;;;;27.86;47.99;96592.25;5057341;28;20055;-79
2021/06/20 01:14:00;;;;;;;9.23;4.68;;;;;;;27.72;48.31;96568.84;5074686;28;20036;-79
2021/06/20 01:16:27;;;;;;;8.88;4.03;;;;;;;27.64;47.86;96576.06;5057143;28;20063;-78
2021/06/20 01:18:53;;;;;;;9.05;3.83;;;;;;;27.61;48.05;96592.84;5074112;28;20107;-79
2021/06/20 01:21:19;;;;;;;8.43;4.03;;;;;;;27.69;47.78;96588.31;5073811;28;20107;-79
2021/06/20 01:23:45;;;;;;;7.63;3.70;;;;;;;27.45;48.35;96577.84;5073862;28;20514;-79
2021/06/20 01:26:10;;;;;;;8.15;4.22;;;;;;;27.39;48.39;96581.97;5054971;28;20390;-79
2021/06/20 01:28:50;;;;;;;15.23;4.75;;;;;;;27.28;48.77;96597.94;5073530;28;20028;-78
2021/06/20 01:31:16;;;;;;;8.05;4.30;;;;;;;27.23;48.76;96594.78;5059344;28;20046;-79
2021/06/20 01:33:42;;;;;;;7.90;3.67;;;;;;;27.17;48.30;96580.22;5073046;28;20103;-79
2021/06/20 01:36:09;;;;;;;5.65;3.28;;;;;;;27.06;48.19;96596.16;5056727;28;20119;-79
2021/06/20 01:38:34;;;;;;;6.50;3.15;;;;;;;26.93;48.28;96595.63;5075088;28;20066;-79
2021/06/20 01:41:00;;;;;;;7.97;3.47;;;;;;;26.91;48.21;96597.91;5059763;28;20464;-78
2021/06/20 01:43:25;;;;;;;8.77;3.40;;;;;;;26.88;48.34;96598.63;5050700;28;20033;-78
2021/06/20 01:45:50;;;;;;;8.43;3.00;;;;;;;26.80;48.43;96610.38;5074426;28;20517;-78
2021/06/20 01:48:18;;;;;;;4.80;2.90;;;;;;;26.79;48.49;96617.63;5075055;28;20036;-78
2021/06/20 01:50:43;;;;;;;5.70;3.05;;;;;;;26.74;48.80;96625.19;5073510;28;20031;-78
2021/06/20 01:53:13;;;;;;;7.00;3.28;;;;;;;26.48;49.09;96624.84;5074307;28;20032;-78
2021/06/20 01:55:41;;;;;;;4.90;3.20;;;;;;;26.48;49.22;96635.53;5058144;28;20036;-78
2021/06/20 01:58:12;;;;;;;4.68;2.85;;;;;;;26.39;49.12;96635.03;5075168;28;20433;-79
2021/06/20 02:00:39;;;;;;;4.00;3.20;;;;;;;26.34;50.08;96630.78;5055498;28;20032;-79
2021/06/20 02:03:09;;;;;;;7.72;2.85;;;;;;;26.13;50.47;96609.13;5055003;28;20036;-79
2021/06/20 02:05:35;;;;;;;5.60;2.75;;;;;;;26.37;50.04;96604.50;5054455;28;20043;-78
2021/06/20 02:08:03;;;;;;;5.82;2.78;;;;;;;26.31;50.07;96606.72;5053936;28;20364;-79
2021/06/20 02:10:29;;;;;;;4.32;2.78;;;;;;;26.27;50.27;96622.69;5073595;28;20405;-79
2021/06/20 02:12:54;;;;;;;6.47;3.30;;;;;;;26.26;50.69;96636.38;5072504;28;20030;-78
2021/06/20 02:15:20;;;;;;;6.28;3.92;;;;;;;26.13;50.99;96652.59;5073540;28;20028;-78
2021/06/20 02:17:47;;;;;;;4.57;2.78;;;;;;;25.76;51.88;96663.81;5057262;28;20031;-79
2021/06/20 02:20:15;;;;;;;7.22;3.25;;;;;;;25.92;51.52;96669.00;5074175;28;20052;-78
2021/06/20 02:22:42;;;;;;;5.25;3.10;;;;;;;26.03;51.64;96668.44;5071916;28;20032;-79
2021/06/20 02:25:09;;;;;;;6.65;3.13;;;;;;;25.98;51.75;96683.63;5072888;28;20410;-79
2021/06/20 02:27:35;;;;;;;5.05;3.00;;;;;;;25.93;52.12;96688.47;5073202;28;20097;-79
2021/06/20 02:30:00;;;;;;;8.05;4.10;;;;;;;25.83;52.15;96676.50;5050799;28;20033;-79
2021/06/20 02:32:26;;;;;;;6.50;2.75;;;;;;;25.53;53.31;96692.34;5072877;28;20047;-79
2021/06/20 02:34:52;;;;;;;4.38;3.10;;;;;;;25.61;52.26;96710.78;5072961;28;20039;-79
2021/06/20 02:37:19;;;;;;;6.82;2.63;;;;;;;25.42;53.45;96713.50;5072549;28;20229;-79
2021/06/20 02:39:44;;;;;;;5.78;2.80;;;;;;;25.61;53.01;96716.13;5043535;28;20071;-79
2021/06/20 02:42:11;;;;;;;5.80;3.33;;;;;;;25.44;53.57;96705.91;5044362;28;20430;-78
2021/06/20 02:44:37;;;;;;;10.77;3.70;;;;;;;25.38;53.59;96716.09;5056515;28;20039;-78
2021/06/20 02:47:03;;;;;;;4.10;2.67;;;;;;;25.34;54.27;96699.25;5052942;28;20020;-78
2021/06/20 02:49:30;;;;;;;5.68;2.63;;;;;;;24.94;55.33;96707.59;5071009;28;20071;-79
2021/06/20 02:51:56;;;;;;;7.22;3.35;;;;;;;25.46;54.04;96721.56;5048844;28;20028;-78
2021/06/20 02:54:22;;;;;;;9.20;3.30;;;;;;;25.37;54.57;96713.78;5056090;28;20081;-79
2021/06/20 02:56:47;;;;;;;6.13;3.33;;;;;;;25.36;54.33;96709.56;5073267;28;20127;-78
2021/06/20 02:59:12;;;;;;;5.18;2.78;;;;;;;25.34;54.82;96704.59;5073073;28;20032;-78
2021/06/20 03:01:38;;;;;;;7.78;3.78;;;;;;;25.11;55.54;96717.84;5072601;28;20039;-78
2021/06/20 03:04:04;;;;;;;6.05;3.08;;;;;;;25.19;55.36;96716.06;5055335;28;20043;-78
2021/06/20 03:06:29;;;;;;;6.55;3.00;;;;;;;25.11;55.98;96744.47;5057397;28;20020;-79
2021/06/20 03:08:54;;;;;;;8.10;3.17;;;;;;;25.21;55.41;96749.25;5073194;28;20050;-78
2021/06/20 03:11:20;;;;;;;8.20;3.55;;;;;;;25.30;55.33;96745.63;5041964;28;20036;-78
2021/06/20 03:13:49;;;;;;;6.43;3.78;;;;;;;25.13;55.72;96744.13;5072687;28;20043;-78
2021/06/20 03:16:17;;;;;;;6.03;3.30;;;;;;;25.12;55.89;96746.03;5072800;28;20028;-78
2021/06/20 03:18:43;;;;;;;5.43;3.10;;;;;;;25.19;55.54;96745.38;5043960;28;20036;-78
2021/06/20 03:21:09;;;;;;;6.25;3.60;;;;;;;25.21;55.74;96749.25;5055732;28;20028;-77
2021/06/20 03:23:35;;;;;;;5.40;2.70;;;;;;;25.27;55.49;96751.66;5053301;28;20024;-78
2021/06/20 03:26:00;;;;;;;4.97;3.13;;;;;;;25.22;55.33;96753.47;5073171;28;20532;-78
2021/06/20 03:28:26;;;;;;;5.47;3.30;;;;;;;25.03;55.95;96750.78;5055093;28;20032;-78
2021/06/20 03:30:51;;;;;;;5.88;3.00;;;;;;;24.98;55.91;96759.03;5090421;28;20062;-78
2021/06/20 03:33:17;;;;;;;4.45;2.83;;;;;;;25.09;55.84;96769.91;5052064;28;20040;-78
2021/06/20 03:35:42;;;;;;;6.53;3.40;;;;;;;24.89;55.81;96755.81;5072077;28;20035;-78
2021/06/20 03:38:08;;;;;;;5.97;2.92;;;;;;;25.02;55.55;96751.91;5067237;28;20039;-78
2021/06/20 03:40:33;;;;;;;8.65;3.53;;;;;;;24.97;55.63;96765.50;5059531;28;20040;-78
2021/06/20 03:42:58;;;;;;;6.07;3.00;;;;;;;24.96;55.77;96767.38;5054656;28;20046;-78
2021/06/20 03:45:27;;;;;;;5.05;3.38;;;;;;;25.04;55.37;96774.41;5054081;28;20035;-78
2021/06/20 03:47:52;;;;;;;4.72;3.00;;;;;;;24.97;55.92;96768.16;5072287;28;20028;-78
2021/06/20 03:50:19;;;;;;;9.43;3.28;;;;;;;24.78;56.64;96759.00;5071925;28;20364;-78
2021/06/20 03:52:44;;;;;;;5.70;2.80;;;;;;;24.93;55.75;96760.06;5050914;28;20029;-78
2021/06/20 03:55:10;;;;;;;4.43;3.10;;;;;;;24.99;56.03;96752.59;5066599;28;20031;-78
2021/06/20 03:57:36;;;;;;;5.20;2.70;;;;;;;25.02;55.19;96758.00;5069469;28;20043;-78
2021/06/20 04:00:04;;;;;;;4.50;2.60;;;;;;;24.95;55.42;96768.50;5069230;28;20032;-78
2021/06/20 04:02:29;;;;;;;4.57;3.05;;;;;;;24.97;55.80;96762.84;5071278;28;20040;-78
2021/06/20 04:04:54;;;;;;;5.35;2.60;;;;;;;25.00;55.37;96759.44;5054813;28;20035;-78
2021/06/20 04:07:20;;;;;;;5.43;2.67;;;;;;;24.91;55.12;96761.56;5068572;28;20036;-78
2021/06/20 04:09:45;;;;;;;6.85;2.75;;;;;;;24.99;55.30;96763.25;5071581;28;20102;-78
2021/06/20 04:12:13;;;;;;;3.70;2.42;;;;;;;24.95;55.30;96762.38;5071321;28;20485;-77
2021/06/20 04:14:40;;;;;;;4.32;2.00;;;;;;;24.90;55.07;96755.47;5041908;28;20028;-78
2021/06/20 04:17:06;;;;;;;4.65;2.85;;;;;;;24.85;55.62;96764.50;5055013;28;20049;-78
2021/06/20 04:19:32;;;;;;;5.40;2.85;;;;;;;24.90;55.48;96766.13;5054819;28;20030;-78
2021/06/20 04:21:57;;;;;;;4.20;2.30;;;;;;;24.83;55.54;96761.41;5071345;28;20028;-78
2021/06/20 04:24:23;;;;;;;6.97;3.10;;;;;;;24.91;54.89;96761.56;5071499;28;20454;-78
2021/06/20 04:26:48;;;;;;;4.55;2.70;;;;;;;25.01;54.48;96766.34;5035345;28;20078;-79
2021/06/20 04:29:13;;;;;;;4.40;2.60;;;;;;;24.93;55.24;96781.38;5051414;28;20032;-78
2021/06/20 04:31:39;;;;;;;4.55;2.10;;;;;;;24.85;55.21;96774.38;5070726;28;20032;-79
2021/06/20 04:34:04;;;;;;;3.25;2.15;;;;;;;24.89;54.80;96780.53;5089468;28;20024;-79
2021/06/20 04:36:30;;;;;;;4.80;2.30;;;;;;;24.90;54.54;96782.09;5071516;28;20032;-79
2021/06/20 04:38:56;;;;;;;5.57;2.58;;;;;;;25.00;54.24;96780.75;5069558;28;20031;-78
2021/06/20 04:41:22;;;;;;;3.45;2.00;;;;;;;24.90;54.06;96795.41;5081358;28;20073;-78
2021/06/20 04:46:30;;;;;;;3.75;2.15;;;;;;;24.77;55.05;96791.31;5058929;28;20030;-78
2021/06/20 04:49:01;;;;;;;4.25;2.10;;;;;;;24.71;54.58;96798.00;5093478;28;20528;-78
2021/06/20 04:51:31;;;;;;;4.35;2.13;;;;;;;24.68;54.77;96796.81;5055209;28;20119;-78
2021/06/20 04:53:57;;;;;;;4.43;2.88;;;;;;;24.78;54.38;96801.63;5055758;28;20064;-78
2021/06/20 04:56:23;;;;;;;4.55;2.28;;;;;;;24.74;54.37;96800.75;5058708;28;20257;-78
2021/06/20 04:58:48;;;;;;;6.30;2.00;;;;;;;24.60;55.00;96795.88;5041491;28;20026;-78
2021/06/20 05:01:14;;;;;;;6.25;2.40;;;;;;;24.54;55.43;96797.28;5091615;28;20058;-78
2021/06/20 05:03:39;;;;;;;3.05;2.33;;;;;;;24.59;55.25;96804.19;5073778;28;20046;-78
2021/06/20 05:06:05;;;;;;;4.28;2.25;;;;;;;24.60;55.19;96813.75;5041396;28;20125;-78
2021/06/20 05:08:31;;;;;;;2.70;2.10;;;;;;;24.66;54.81;96812.38;5074020;28;20428;-78
2021/06/20 05:10:56;;;;;;;4.95;2.40;;;;;;;24.62;54.75;96809.59;5057138;28;20454;-78
2021/06/20 05:13:21;;;;;;;4.45;2.30;;;;;;;24.68;54.27;96810.13;5053938;28;20185;-78
2021/06/20 05:15:47;;;;;;;4.93;2.45;;;;;;;24.55;55.37;96825.41;5072410;28;20032;-78
2021/06/20 05:18:13;;;;;;;3.65;2.38;;;;;;;24.56;55.36;96823.53;5073684;28;20244;-78
2021/06/20 05:20:40;;;;;;;3.65;1.90;;;;;;;24.61;55.06;96818.72;5073178;28;20319;-79
2021/06/20 05:23:05;;;;;;;3.70;2.33;;;;;;;24.47;55.22;96824.44;5053785;28;20119;-79
2021/06/20 05:25:31;;;;;;;3.25;2.30;;;;;;;24.58;55.14;96832.72;5071712;28;20120;-79
2021/06/20 05:27:58;;;;;;;5.15;2.10;;;;;;;24.70;54.84;96825.75;5057480;28;20390;-79
2021/06/20 05:30:24;;;;;;;4.82;2.40;;;;;;;24.60;55.48;96819.84;5073886;28;20107;-78
2021/06/20 05:32:49;;;;;;;2.45;2.10;;;;;;;24.80;54.01;96818.00;5057186;28;20028;-79
2021/06/20 05:35:16;;;;;;;2.58;1.95;;;;;;;24.76;54.97;96819.84;5066261;28;20032;-79
2021/06/20 05:37:41;;;;;;;5.15;2.83;;;;;;;24.83;55.02;96808.53;5057837;28;20032;-79
2021/06/20 05:40:07;;;;;;;4.53;2.25;;;;;;;24.88;54.39;96804.84;5073032;28;20111;-80
2021/06/20 05:42:33;;;;;;;5.25;2.40;;;;;;;24.92;54.25;96805.72;5073919;28;20028;-79
2021/06/20 05:44:58;;;;;;;3.90;2.25;;;;;;;25.01;53.37;96815.03;5074149;28;20666;-79
2021/06/20 05:47:24;;;;;;;3.35;2.05;;;;;;;25.03;54.28;96812.81;5055336;28;20207;-79
2021/06/20 05:49:49;;;;;;;3.08;2.00;;;;;;;25.13;53.68;96808.81;5037629;28;20291;-79
2021/06/20 05:52:16;;;;;;;3.75;2.72;;;;;;;25.13;53.56;96803.50;5073114;28;20125;-79
2021/06/20 05:54:49;;;;;;;5.85;2.65;;;;;;;25.32;53.77;96799.34;5073198;28;20028;-79
2021/06/20 05:57:15;;;;;;;4.75;2.20;;;;;;;25.36;53.27;96800.19;5055019;28;20495;-79
2021/06/20 05:59:40;;;;;;;2.55;2.20;;;;;;;25.48;53.03;96805.41;5055767;28;20031;-79
2021/06/20 06:02:06;;;;;;;3.22;2.15;;;;;;;25.51;52.02;96807.34;5053260;28;20043;-79
2021/06/20 06:04:32;;;;;;;3.63;2.10;;;;;;;25.64;52.02;96812.53;5039311;28;20056;-79
2021/06/20 06:06:57;;;;;;;2.53;2.20;;;;;;;25.66;52.57;96799.63;5037959;28;20060;-79
2021/06/20 06:09:23;;;;;;;4.32;2.10;;;;;;;25.61;52.53;96793.44;5053209;28;20033;-78
2021/06/20 06:11:50;;;;;;;3.28;2.70;;;;;;;25.65;51.80;96801.50;5091687;28;20024;-79
2021/06/20 06:14:16;;;;;;;3.83;2.53;;;;;;;25.61;52.33;96814.75;5057410;28;20043;-79
2021/06/20 06:16:41;;;;;;;4.10;2.17;;;;;;;25.64;51.55;96813.31;5073946;28;20463;-79
2021/06/20 06:19:06;;;;;;;4.53;2.88;;;;;;;25.72;52.33;96812.31;5053130;28;20032;-79
2021/06/20 06:21:32;;;;;;;3.20;2.05;;;;;;;25.77;51.64;96827.25;5052559;28;20112;-78
2021/06/20 06:23:57;;;;;;;5.07;2.08;;;;;;;25.61;52.47;96827.34;5069293;28;20032;-79
2021/06/20 06:26:23;;;;;;;2.88;2.40;;;;;;;25.68;51.93;96821.38;5073501;28;20032;-79
2021/06/20 06:28:49;;;;;;;2.88;2.20;;;;;;;25.70;52.01;96816.44;5073660;28;20033;-79
2021/06/20 06:31:15;;;;;;;4.97;3.15;;;;;;;25.73;52.00;96815.75;5073259;28;20024;-79
2021/06/20 06:33:40;;;;;;;4.85;3.00;;;;;;;25.89;51.63;96813.78;5040036;28;20059;-79
2021/06/20 06:36:06;;;;;;;5.32;2.70;;;;;;;25.82;52.15;96810.97;5073328;28;20043;-79
2021/06/20 06:38:32;;;;;;;4.18;2.20;;;;;;;25.89;51.54;96807.66;5091401;28;20539;-79
2021/06/20 06:40:57;;;;;;;5.18;2.70;;;;;;;25.94;51.00;96799.38;5070652;28;20043;-79
2021/06/20 06:43:23;;;;;;;2.85;2.35;;;;;;;26.21;50.35;96804.81;5056155;28;20036;-79
2021/06/20 06:45:48;;;;;;;3.00;2.13;;;;;;;26.07;51.02;96813.34;5049805;28;20064;-79
2021/06/20 06:48:14;;;;;;;2.67;2.15;;;;;;;26.10;51.90;96818.75;5055123;28;20028;-79
2021/06/20 06:50:40;;;;;;;4.30;2.58;;;;;;;26.46;50.41;96823.88;5056124;28;20530;-79
2021/06/20 06:53:05;;;;;;;3.03;2.10;;;;;;;26.32;50.60;96825.22;5090844;28;20111;-79
2021/06/20 06:55:31;;;;;;;3.90;2.53;;;;;;;26.73;49.04;96816.72;5054510;28;20116;-79
2021/06/20 06:58:01;;;;;;;2.40;2.20;;;;;;;27.05;48.01;96800.38;5056630;28;20478;-79
2021/06/20 07:00:27;;;;;;;3.30;2.50;;;;;;;27.32;47.23;96793.13;5038131;28;20078;-79
2021/06/20 07:02:53;;;;;;;4.10;2.30;;;;;;;27.49;45.96;96810.50;5053060;28;20429;-78
2021/06/20 07:05:19;;;;;;;3.22;2.38;;;;;;;27.52;47.03;96811.66;5071635;28;20078;-79
2021/06/20 07:07:45;;;;;;;2.80;2.28;;;;;;;27.53;46.21;96824.69;5052969;28;20028;-79
2021/06/20 07:10:11;;;;;;;3.25;2.00;;;;;;;27.51;46.92;96834.22;5032203;28;20454;-79
2021/06/20 07:12:36;;;;;;;4.45;2.70;;;;;;;27.28;47.71;96835.06;5056692;28;20055;-80
2021/06/20 07:15:04;;;;;;;3.47;2.35;;;;;;;27.39;47.59;96852.00;5072461;28;20082;-79
2021/06/20 07:17:30;;;;;;;2.50;2.13;;;;;;;27.32;47.16;96849.25;5072019;28;20028;-79
2021/06/20 07:19:55;;;;;;;4.13;3.25;;;;;;;27.16;46.88;96844.06;5055636;28;20073;-79
2021/06/20 07:22:21;;;;;;;2.97;2.00;;;;;;;27.18;46.67;96832.97;5045437;28;20471;-79
2021/06/20 07:24:46;;;;;;;3.17;2.17;;;;;;;27.25;46.56;96827.75;5050951;28;20029;-80
2021/06/20 07:27:13;;;;;;;2.00;1.80;;;;;;;27.30;46.46;96821.31;5067544;28;20040;-79
2021/06/20 07:29:40;;;;;;;3.78;2.65;;;;;;;27.36;45.58;96807.28;5055652;28;20036;-78
2021/06/20 07:32:06;;;;;;;4.53;2.63;;;;;;;27.56;45.79;96815.94;5034901;28;20060;-78
2021/06/20 07:34:31;;;;;;;4.20;2.28;;;;;;;27.51;45.80;96810.91;5088728;28;20068;-79
2021/06/20 07:36:57;;;;;;;5.45;3.17;;;;;;;27.48;45.48;96816.22;5053329;28;20088;-79
2021/06/20 07:39:25;;;;;;;5.22;2.53;;;;;;;27.43;45.82;96803.94;5037599;28;20573;-80
2021/06/20 07:41:51;;;;;;;5.85;2.30;;;;;;;27.40;45.53;96802.75;5034876;28;20024;-80
2021/06/20 07:44:16;;;;;;;3.58;2.30;;;;;;;27.40;45.54;96796.63;5071953;28;20031;-79
2021/06/20 07:46:42;;;;;;;2.75;1.92;;;;;;;27.46;45.72;96795.94;5068362;28;20024;-79
2021/06/20 07:49:07;;;;;;;3.25;2.30;;;;;;;27.65;45.22;96788.91;5072276;28;20103;-79
2021/06/20 07:51:33;;;;;;;5.25;3.10;;;;;;;27.93;45.01;96793.03;5036922;28;20024;-79
2021/06/20 07:53:58;;;;;;;3.30;2.30;;;;;;;28.30;43.36;96789.53;5053393;28;20531;-79
2021/06/20 07:56:24;;;;;;;2.78;2.28;;;;;;;28.49;43.35;96788.53;5053369;28;20032;-79
2021/06/20 07:58:49;;;;;;;3.17;2.03;;;;;;;28.61;41.94;96777.53;5053534;28;20029;-79
2021/06/20 08:01:15;;;;;;;2.47;2.13;;;;;;;28.71;42.22;96784.88;5053074;28;20042;-79
2021/06/20 08:03:40;;;;;;;3.13;2.90;;;;;;;28.73;42.94;96781.81;5052146;28;20029;-79
2021/06/20 08:06:05;;;;;;;2.40;2.20;;;;;;;29.11;40.98;96779.72;5034037;28;20493;-79
2021/06/20 08:08:31;;;;;;;4.65;2.20;;;;;;;28.99;40.96;96774.69;5036170;28;20093;-79
2021/06/20 08:10:57;;;;;;;2.72;1.95;;;;;;;29.08;41.14;96783.94;5071194;28;20036;-79
2021/06/20 08:13:23;;;;;;;3.13;2.40;;;;;;;28.98;41.45;96779.31;5034882;28;20028;-79
2021/06/20 08:15:48;;;;;;;3.42;1.90;;;;;;;28.69;41.96;96781.81;5054771;28;20119;-79
2021/06/20 08:18:14;;;;;;;2.97;2.35;;;;;;;28.36;42.50;96769.28;5054637;28;20079;-79
2021/06/20 08:20:39;;;;;;;3.10;2.22;;;;;;;28.38;43.23;96761.69;5072927;28;20432;-79
2021/06/20 08:23:05;;;;;;;3.22;2.47;;;;;;;28.15;43.98;96762.63;5039850;28;20028;-79
2021/06/20 08:25:30;;;;;;;2.75;2.25;;;;;;;28.29;42.80;96777.28;5073399;28;20445;-79
2021/06/20 08:27:56;;;;;;;2.40;2.20;;;;;;;28.32;43.18;96768.50;5075579;28;20063;-79
2021/06/20 08:30:21;;;;;;;4.05;2.05;;;;;;;28.37;41.88;96760.13;5058106;28;20067;-79
2021/06/20 08:32:47;;;;;;;3.38;2.60;;;;;;;28.31;41.49;96758.94;5093150;28;20078;-79
2021/06/20 08:35:13;;;;;;;2.90;2.30;;;;;;;28.18;42.47;96767.25;5093291;28;20024;-79
2021/06/20 08:37:39;;;;;;;3.22;2.45;;;;;;;28.06;43.24;96758.75;5058622;28;20024;-80
2021/06/20 08:40:06;;;;;;;4.50;2.40;;;;;;;28.17;42.36;96773.75;5057393;28;20031;-79
2021/06/20 08:42:31;;;;;;;3.67;2.20;;;;;;;28.09;42.54;96780.19;5041578;28;20047;-79
2021/06/20 08:44:57;;;;;;;3.10;2.40;;;;;;;27.86;43.48;96787.56;5041030;28;20039;-79
2021/06/20 08:47:22;;;;;;;4.00;2.67;;;;;;;28.00;43.17;96787.72;5058076;28;20462;-79
2021/06/20 08:49:47;;;;;;;3.08;2.53;;;;;;;27.93;44.52;96790.34;5070708;28;20032;-79
2021/06/20 08:52:13;;;;;;;3.15;2.20;;;;;;;28.12;43.31;96795.50;5038916;28;20044;-79
2021/06/20 08:55:00;;;;;;;3.05;2.10;;;;;;;28.10;44.03;96792.41;5056293;28;20036;-79
2021/06/20 08:57:25;;;;;;;3.40;2.55;;;;;;;28.12;44.08;96790.16;5077864;28;20039;-79
2021/06/20 08:59:51;;;;;;;2.65;2.28;;;;;;;28.09;43.65;96792.81;5058198;28;20024;-79
2021/06/20 09:02:23;;;;;;;2.53;2.33;;;;;;;27.81;43.69;96788.66;5074486;28;20478;-79
2021/06/20 09:04:55;;;;;;;2.88;2.20;;;;;;;27.78;44.28;96786.75;5053918;28;20123;-79
2021/06/20 09:07:40;;;;;;;3.08;2.15;;;;;;;27.80;43.93;96776.44;5058114;28;20111;-79
2021/06/20 09:10:09;;;;;;;3.65;2.22;;;;;;;27.70;44.34;96777.88;5047761;28;20086;-79
2021/06/20 09:12:51;;;;;;;4.32;2.25;;;;;;;27.56;45.39;96791.84;5057934;28;20106;-79
2021/06/20 09:15:28;;;;;;;4.15;2.63;;;;;;;27.71;44.92;96797.34;5073984;28;20130;-79
2021/06/20 09:17:56;;;;;;;4.25;2.58;;;;;;;27.68;45.74;96782.81;5074303;28;20036;-79
2021/06/20 09:20:40;;;;;;;3.28;2.20;;;;;;;27.56;45.37;96783.06;5073834;28;20029;-79
2021/06/20 09:23:08;;;;;;;4.82;2.88;;;;;;;27.62;44.92;96776.25;5057697;28;20096;-78
2021/06/20 09:25:35;;;;;;;1.80;1.70;;;;;;;27.68;44.94;96777.47;5074491;28;20028;-79
2021/06/20 09:28:02;;;;;;;3.40;2.20;;;;;;;27.63;44.58;96764.44;5057726;28;20024;-79
2021/06/20 09:30:30;;;;;;;2.35;2.10;;;;;;;27.90;44.79;96762.41;5056315;28;20036;-79
2021/06/20 09:33:01;;;;;;;2.28;2.08;;;;;;;27.92;45.96;96760.16;5057117;28;20422;-79
2021/06/20 09:36:00;;;;;;;3.20;2.45;;;;;;;28.27;42.86;96750.09;5055465;28;20089;-79
2021/06/20 09:38:34;;;;;;;3.33;2.10;;;;;;;28.46;44.10;96743.75;5080510;28;20703;-80
2021/06/20 09:41:05;;;;;;;4.33;2.20;;;;;;;28.51;41.84;96741.47;5050297;28;20453;-79
2021/06/20 09:43:31;;;;;;;4.95;2.45;;;;;;;28.69;42.87;96746.22;5036882;28;20032;-79
2021/06/20 09:45:57;;;;;;;4.03;2.30;;;;;;;28.71;42.55;96765.38;5054873;28;20028;-79
2021/06/20 09:48:34;;;;;;;4.95;2.63;;;;;;;28.65;42.38;96753.44;5073195;28;20512;-79
2021/06/20 09:51:20;;;;;;;3.90;2.47;;;;;;;28.74;42.06;96749.31;5054773;28;20042;-80
2021/06/20 09:53:48;;;;;;;3.67;2.13;;;;;;;29.08;41.88;96743.72;5070215;28;20407;-79
2021/06/20 09:56:24;;;;;;;3.67;2.38;;;;;;;29.44;40.34;96741.19;5058548;28;20059;-79
2021/06/20 09:59:05;;;;;;;4.47;2.70;;;;;;;29.21;42.31;96738.06;5058330;28;20103;-80
2021/06/20 10:01:35;;;;;;;3.05;2.03;;;;;;;29.56;40.17;96742.78;5075084;28;20547;-79
2021/06/20 10:04:04;;;;;;;3.00;2.60;;;;;;;29.34;41.29;96736.56;5048770;28;20040;-79
2021/06/20 10:06:30;;;;;;;4.05;2.80;;;;;;;29.23;42.48;96733.09;5088824;28;20036;-80
2021/06/20 10:08:55;;;;;;;3.25;2.45;;;;;;;29.30;42.29;96720.47;5067355;28;20039;-79
2021/06/20 10:11:21;;;;;;;3.22;2.88;;;;;;;29.88;40.86;96729.41;5055674;28;20467;-79
2021/06/20 10:13:47;;;;;;;4.60;2.92;;;;;;;30.06;42.04;96728.66;5054721;28;20115;-79
2021/06/20 10:16:15;;;;;;;3.42;2.45;;;;;;;30.30;40.14;96721.75;5038717;28;20097;-79
2021/06/20 10:18:46;;;;;;;3.08;2.70;;;;;;;30.55;41.24;96729.00;5057912;28;20024;-79
2021/06/20 10:21:11;;;;;;;2.60;2.40;;;;;;;30.70;37.18;96725.16;5054551;28;20060;-80
2021/06/20 10:23:36;;;;;;;3.63;2.47;;;;;;;31.29;36.93;96729.94;5041613;28;20055;-79
2021/06/20 10:26:07;;;;;;;3.47;2.45;;;;;;;31.43;35.94;96715.66;5075015;28;20036;-79
2021/06/20 10:28:32;;;;;;;4.85;2.88;;;;;;;31.60;37.36;96694.44;5058264;28;20046;-79
2021/06/20 10:31:08;;;;;;;2.65;2.45;;;;;;;31.82;37.68;96697.72;5057858;28;20791;-79
2021/06/20 10:33:37;;;;;;;4.13;3.03;;;;;;;32.12;35.86;96699.81;5076720;28;20047;-80
2021/06/20 10:36:06;;;;;;;2.17;1.98;;;;;;;32.49;34.02;96687.53;5059400;28;20028;-80
2021/06/20 10:38:32;;;;;;;3.13;2.50;;;;;;;32.83;34.02;96692.19;5059344;28;20026;-80
2021/06/20 10:40:57;;;;;;;3.53;2.22;;;;;;;33.22;33.50;96685.56;5074045;28;20436;-80
2021/06/20 10:43:23;;;;;;;3.22;2.78;;;;;;;33.38;34.32;96679.56;5050906;28;20110;-80
2021/06/20 10:45:50;;;;;;;3.97;2.83;;;;;;;33.01;33.91;96673.84;5061752;28;20028;-80
2021/06/20 10:48:18;;;;;;;3.05;2.15;;;;;;;33.29;33.81;96673.91;5093504;28;20043;-80
2021/06/20 10:50:49;;;;;;;3.88;2.80;;;;;;;33.58;32.92;96676.94;5057520;28;20036;-78
2021/06/20 10:53:15;;;;;;;4.35;2.38;;;;;;;33.73;33.00;96672.13;5073885;28;20031;-80
2021/06/20 10:55:45;;;;;;;3.30;2.97;;;;;;;33.50;31.77;96679.00;5057339;28;20587;-80
2021/06/20 10:58:22;;;;;;;3.70;2.35;;;;;;;33.34;32.46;96662.66;5050610;28;20020;-80
2021/06/20 11:00:48;;;;;;;2.92;2.63;;;;;;;33.22;32.85;96659.34;5069981;28;20466;-80
2021/06/20 11:03:22;;;;;;;2.95;2.30;;;;;;;33.08;33.01;96664.16;5072976;28;20040;-79
2021/06/20 11:05:50;;;;;;;2.67;2.45;;;;;;;33.75;31.37;96653.59;5071252;28;20036;-80
2021/06/20 11:08:50;;;;;;;3.92;2.65;;;;;;;33.73;30.40;96650.53;5039094;28;20138;-80
2021/06/20 11:11:18;;;;;;;3.15;2.85;;;;;;;33.65;32.24;96639.03;5075653;28;20119;-80
2021/06/20 11:13:47;;;;;;;4.03;2.95;;;;;;;33.54;33.68;96644.63;5072107;28;20029;-80
2021/06/20 11:16:22;;;;;;;3.40;3.10;;;;;;;33.00;34.01;96626.47;5039097;28;20016;-80
2021/06/20 11:18:48;;;;;;;2.88;2.67;;;;;;;33.02;35.65;96634.94;5060360;28;20024;-79
2021/06/20 11:21:13;;;;;;;3.03;2.67;;;;;;;31.89;34.17;96633.84;5063549;28;20036;-79
2021/06/20 11:23:40;;;;;;;2.90;2.60;;;;;;;31.91;34.94;96628.81;5056627;28;20149;-79
2021/06/20 11:26:07;;;;;;;3.25;2.95;;;;;;;32.09;35.53;96628.66;5071972;28;20118;-79
2021/06/20 11:28:33;;;;;;;2.53;2.33;;;;;;;32.38;33.92;96619.53;5051773;28;20040;-79
2021/06/20 11:31:19;;;;;;;3.17;2.60;;;;;;;32.41;34.19;96618.72;5054540;28;20394;-79
2021/06/20 11:33:52;;;;;;;3.08;2.88;;;;;;;32.55;34.33;96623.94;5071185;28;20040;-78